»·PEaware :: N969DA KSNA-KAVX

N969DA :: KSNA-KAVX

FLIGHT INFORMATION

Flight Status: Arrived
Operator: Privately registered:
United States
More flights under this callsign
Pilot: Anonymous 20880 (20880)
Aircraft: Unknown
(DA62)
More flights by this aircraft type
Origin: KSNA John Wayne-Orange Co
United States
Destination: KAVX Catalina
United States
More flights between these airports :: More routes between these airports
Route: SLI V21 SXC
File this flight plan on PilotEdge
Remarks: I7 rating
Altitude:
(Current/Filed)
4,000ft
Speed:
(Current/Filed)
140kts
Departed: 28-Dec-18 05:38 PM
Arrived: 28-Dec-18 06:02 PM
Distance/Time
Traveled:
40nm/0:24
Distance/Time
To Go:
Arrived

Flight Plot

Page will automatically refresh every two minutes.


Map Options




Map Legend


Flown Route
Filed Route
Departure Airport
Arrival Airport
Navaid (VOR, NDB)
Fix

Horizontal Profiles

Position Reports

Time Latitude Longitude Heading Altitude Ground
Speed
28-Dec-18 17:23 33.675823 -117.871069 220 60ft 0kts
28-Dec-18 17:24 33.675823 -117.871069 220 60ft 0kts
28-Dec-18 17:25 33.675823 -117.871069 220 60ft 0kts
28-Dec-18 17:26 33.675823 -117.871069 220 60ft 0kts
28-Dec-18 17:27 33.675823 -117.871069 220 60ft 0kts
28-Dec-18 17:28 33.675823 -117.871069 220 60ft 0kts
28-Dec-18 17:29 33.675823 -117.871069 220 60ft 0kts
28-Dec-18 17:30 33.675779 -117.871081 169 60ft 2kts
28-Dec-18 17:31 33.671798 -117.872791 206 60ft 27kts
28-Dec-18 17:32 33.668434 -117.874725 159 60ft 13kts
28-Dec-18 17:33 33.668320 -117.874645 137 60ft 0kts
28-Dec-18 17:34 33.668320 -117.874645 137 60ft 0kts
28-Dec-18 17:35 33.668320 -117.874645 137 60ft 0kts
28-Dec-18 17:36 33.668073 -117.874185 114 60ft 10kts
28-Dec-18 17:37 33.681292 -117.865522 44 792ft 64kts
28-Dec-18 17:38 33.688998 -117.885794 249 1849ft 98kts
28-Dec-18 17:39 33.682195 -117.921539 249 2370ft 103kts
28-Dec-18 17:40 33.675758 -117.951118 221 3323ft 80kts
28-Dec-18 17:41 33.661231 -117.973570 222 4018ft 118kts
28-Dec-18 17:42 33.636485 -118.011830 232 4001ft 153kts
28-Dec-18 17:43 33.610467 -118.052803 234 3999ft 155kts
28-Dec-18 17:44 33.583905 -118.094431 236 3999ft 159kts
28-Dec-18 17:45 33.556441 -118.137487 237 4001ft 166kts
28-Dec-18 17:46 33.527810 -118.182325 236 4003ft 173kts
28-Dec-18 17:47 33.498149 -118.228622 235 4005ft 177kts
28-Dec-18 17:48 33.468050 -118.275437 234 4006ft 175kts
28-Dec-18 17:49 33.438811 -118.320838 234 4008ft 169kts
28-Dec-18 17:50 33.410104 -118.365381 234 3991ft 168kts
28-Dec-18 17:51 33.386892 -118.400961 234 3992ft 126kts
28-Dec-18 17:52 33.397244 -118.425885 12 3992ft 115kts
28-Dec-18 17:53 33.427221 -118.414123 13 3559ft 114kts
28-Dec-18 17:54 33.460555 -118.407352 7 3391ft 125kts
28-Dec-18 17:55 33.489519 -118.422100 313 3391ft 126kts
28-Dec-18 17:56 33.515937 -118.440724 36 3386ft 121kts
28-Dec-18 17:57 33.503817 -118.407557 151 3382ft 135kts
28-Dec-18 17:58 33.462950 -118.408335 184 2922ft 155kts
28-Dec-18 17:59 33.427857 -118.407769 169 2510ft 104kts
28-Dec-18 18:00 33.405278 -118.415316 236 1543ft 50kts
28-Dec-18 18:01 33.403923 -118.416825 49 1555ft 0kts
28-Dec-18 18:02 33.403923 -118.416825 50 1555ft 0kts
28-Dec-18 18:03 33.406116 -118.413148 54 1519ft 9kts
28-Dec-18 18:04 33.406788 -118.412035 51 1506ft 0kts
28-Dec-18 18:05 33.406956 -118.411755 55 1503ft 1kts
28-Dec-18 18:06 33.406964 -118.411741 55 1503ft 2kts
28-Dec-18 18:07 33.407321 -118.411827 235 1502ft 0kts
28-Dec-18 18:08 33.401403 -118.422085 235 1760ft 90kts
28-Dec-18 18:09 33.380758 -118.433939 114 2750ft 108kts
28-Dec-18 18:10 33.364521 -118.397270 135 3067ft 160kts
28-Dec-18 18:11 33.326037 -118.375741 132 3355ft 148kts
28-Dec-18 18:12 33.299754 -118.337052 116 3504ft 155kts
28-Dec-18 18:13 33.262723 -118.335874 218 3501ft 172kts
28-Dec-18 18:14 33.226654 -118.373571 221 3503ft 169kts
28-Dec-18 18:15 33.192550 -118.409597 221 3509ft 161kts

Navigation Log

Ident Type
Flight plan parsing failed, navigation log unavailable